createdAt,value
2022-12-29T00:00:12.058Z,1.23
2022-12-29T00:02:42.029Z,1.40
2022-12-29T00:05:09.819Z,1.67
2022-12-29T00:07:36.612Z,3.13
2022-12-29T00:10:04.078Z,1.20
2022-12-29T00:12:50.997Z,4.47
2022-12-29T00:15:36.609Z,1.30
2022-12-29T00:18:03.580Z,1.43
2022-12-29T00:20:48.886Z,1.20
2022-12-29T00:23:34.737Z,2.93
2022-12-29T00:26:23.203Z,0.80
2022-12-29T00:29:10.239Z,1.23
2022-12-29T00:31:55.631Z,1.67
2022-12-29T00:34:41.368Z,1.80
2022-12-29T00:37:08.403Z,0.77
2022-12-29T00:39:53.976Z,1.97
2022-12-29T00:42:39.284Z,0.83
2022-12-29T00:45:06.555Z,2.10
2022-12-29T00:47:34.058Z,2.07
2022-12-29T00:50:01.101Z,1.93
2022-12-29T00:52:27.925Z,1.23
2022-12-29T00:54:55.016Z,0.50
2022-12-29T00:57:21.831Z,1.20
2022-12-29T00:59:48.729Z,1.13
2022-12-29T01:02:16.337Z,2.33
2022-12-29T01:04:43.956Z,4.67
2022-12-29T01:07:10.878Z,2.13
2022-12-29T01:09:56.677Z,4.63
2022-12-29T01:12:41.621Z,4.03
2022-12-29T01:15:14.324Z,1.87
2022-12-29T01:17:42.057Z,2.20
2022-12-29T01:20:09.334Z,3.20
2022-12-29T01:22:36.248Z,2.43
2022-12-29T01:25:03.773Z,4.07
2022-12-29T01:27:30.800Z,1.50
2022-12-29T01:29:58.389Z,0.60
2022-12-29T01:32:25.301Z,1.07
2022-12-29T01:34:52.013Z,4.33
2022-12-29T01:37:18.841Z,1.13
2022-12-29T01:39:45.575Z,4.03
2022-12-29T01:42:19.817Z,2.37
2022-12-29T01:44:52.642Z,5.07
2022-12-29T01:47:40.926Z,2.10
2022-12-29T01:50:23.928Z,1.60
2022-12-29T01:53:15.339Z,3.10
2022-12-29T01:55:45.954Z,2.13
2022-12-29T01:58:13.879Z,3.30
2022-12-29T02:00:41.065Z,2.87
2022-12-29T02:03:09.591Z,6.33
2022-12-29T02:05:45.443Z,6.00
2022-12-29T02:08:13.996Z,1.60
2022-12-29T02:10:41.641Z,4.47
2022-12-29T02:13:08.690Z,1.33
2022-12-29T02:16:04.617Z,2.37
2022-12-29T02:18:53.084Z,1.73
2022-12-29T02:21:31.251Z,2.77
2022-12-29T02:24:00.904Z,1.40
2022-12-29T02:26:27.834Z,1.23
2022-12-29T02:28:57.628Z,1.93
2022-12-29T02:31:47.689Z,1.00
2022-12-29T02:34:27.025Z,2.30
2022-12-29T02:37:02.312Z,0.77
2022-12-29T02:39:44.456Z,0.40
2022-12-29T02:42:20.410Z,1.87
2022-12-29T02:44:57.108Z,1.00
2022-12-29T02:47:39.440Z,1.63
2022-12-29T02:50:09.246Z,0.80
2022-12-29T02:52:50.898Z,1.77
2022-12-29T02:55:17.832Z,0.53
2022-12-29T02:57:44.738Z,1.70
2022-12-29T03:00:15.565Z,1.97
2022-12-29T03:02:57.881Z,2.13
2022-12-29T03:05:47.465Z,0.97
2022-12-29T03:08:31.199Z,2.33
2022-12-29T03:11:04.014Z,2.33
2022-12-29T03:14:03.692Z,2.10
2022-12-29T03:16:46.267Z,3.67
2022-12-29T03:19:41.479Z,0.87
2022-12-29T03:22:33.436Z,3.50
2022-12-29T03:25:19.136Z,2.93
2022-12-29T03:27:50.174Z,1.00
2022-12-29T03:30:19.349Z,1.17
2022-12-29T03:32:53.540Z,0.97
2022-12-29T03:35:23.564Z,0.20
2022-12-29T03:38:21.619Z,3.07
2022-12-29T03:40:52.207Z,1.17
2022-12-29T03:43:19.997Z,0.70
2022-12-29T03:45:47.803Z,0.97
2022-12-29T03:48:14.584Z,1.97
2022-12-29T03:50:42.176Z,0.57
2022-12-29T03:53:09.798Z,1.73
2022-12-29T03:55:39.043Z,2.30
2022-12-29T03:58:06.168Z,3.17
2022-12-29T04:01:02.056Z,4.30
2022-12-29T04:03:32.322Z,5.97
2022-12-29T04:05:59.407Z,3.77
2022-12-29T04:08:27.532Z,4.07
2022-12-29T04:10:54.482Z,3.03
2022-12-29T04:13:23.082Z,6.33
2022-12-29T04:15:52.693Z,3.20
2022-12-29T04:18:19.533Z,4.90
2022-12-29T04:21:01.712Z,3.60
2022-12-29T04:23:34.237Z,3.73
2022-12-29T04:26:01.515Z,4.93
2022-12-29T04:28:30.748Z,2.93
2022-12-29T04:30:57.857Z,2.47
2022-12-29T04:33:29.342Z,5.50
2022-12-29T04:35:56.450Z,5.97
2022-12-29T04:38:24.974Z,2.20
2022-12-29T04:40:52.648Z,5.43
2022-12-29T04:43:25.361Z,6.53
2022-12-29T04:46:15.283Z,6.53
2022-12-29T04:49:09.731Z,2.03
2022-12-29T04:51:55.397Z,3.97
2022-12-29T04:54:22.600Z,1.83
2022-12-29T04:56:56.360Z,7.80
2022-12-29T04:59:24.673Z,4.43
2022-12-29T05:01:55.038Z,4.03
2022-12-29T05:04:22.624Z,4.37
2022-12-29T05:06:49.767Z,3.03
2022-12-29T05:09:17.695Z,2.97
2022-12-29T05:11:45.770Z,3.70
2022-12-29T05:14:12.798Z,6.40
2022-12-29T05:16:39.934Z,5.27
2022-12-29T05:19:07.012Z,7.03
2022-12-29T05:21:34.660Z,6.30
2022-12-29T05:24:02.057Z,6.93
2022-12-29T05:26:32.119Z,5.70
2022-12-29T05:29:19.465Z,3.57
2022-12-29T05:31:46.467Z,6.13
2022-12-29T05:34:13.399Z,5.50
2022-12-29T05:36:41.360Z,7.47
2022-12-29T05:39:09.992Z,5.00
2022-12-29T05:41:37.628Z,4.03
2022-12-29T05:44:24.882Z,8.43
2022-12-29T05:47:12.037Z,8.57
2022-12-29T05:50:11.004Z,6.23
2022-12-29T05:52:57.983Z,5.87
2022-12-29T05:55:24.819Z,4.83
2022-12-29T05:57:54.379Z,6.97
2022-12-29T06:00:21.480Z,4.63
2022-12-29T06:02:48.696Z,8.17
2022-12-29T06:05:17.534Z,5.87
2022-12-29T06:07:45.888Z,5.43
2022-12-29T06:10:15.511Z,8.87
2022-12-29T06:12:46.493Z,9.93
2022-12-29T06:15:14.872Z,3.33
2022-12-29T06:17:42.813Z,5.27
2022-12-29T06:20:11.197Z,4.27
2022-12-29T06:22:38.267Z,7.03
2022-12-29T06:25:06.514Z,8.67
2022-12-29T06:27:35.091Z,7.77
2022-12-29T06:30:02.373Z,5.13
2022-12-29T06:32:34.490Z,6.20
2022-12-29T06:35:07.069Z,9.43
2022-12-29T06:37:38.562Z,7.20
2022-12-29T06:40:06.077Z,10.27
2022-12-29T06:42:46.065Z,9.27
2022-12-29T06:45:33.577Z,8.43
2022-12-29T06:48:00.808Z,6.83
2022-12-29T06:50:27.711Z,7.50
2022-12-29T06:52:54.511Z,6.27
2022-12-29T06:55:22.269Z,6.83
2022-12-29T06:57:49.118Z,5.13
2022-12-29T07:00:20.963Z,10.33
2022-12-29T07:02:49.500Z,8.43
2022-12-29T07:05:16.734Z,4.80
2022-12-29T07:07:44.180Z,5.57
2022-12-29T07:10:11.371Z,5.50
2022-12-29T07:12:38.157Z,12.87
2022-12-29T07:15:05.922Z,11.77
2022-12-29T07:17:32.966Z,11.33
2022-12-29T07:19:59.942Z,5.63
2022-12-29T07:22:27.628Z,6.57
2022-12-29T07:24:54.638Z,7.53
2022-12-29T07:27:22.173Z,4.80
2022-12-29T07:29:49.087Z,7.00
2022-12-29T07:32:16.700Z,7.20
2022-12-29T07:34:46.400Z,7.33
2022-12-29T07:37:15.269Z,5.57
2022-12-29T07:39:42.543Z,6.20
2022-12-29T07:42:09.690Z,7.13
2022-12-29T07:44:45.123Z,9.13
2022-12-29T07:47:30.801Z,11.10
2022-12-29T07:49:58.091Z,8.50
2022-12-29T07:52:24.952Z,5.87
2022-12-29T07:54:52.052Z,8.30
2022-12-29T07:57:18.902Z,5.80
2022-12-29T07:59:45.946Z,18.47
2022-12-29T08:02:13.404Z,7.30
2022-12-29T08:04:40.415Z,8.77
2022-12-29T08:07:07.205Z,9.90
2022-12-29T08:09:34.053Z,8.30
2022-12-29T08:12:00.911Z,8.27
2022-12-29T08:14:27.715Z,8.57
2022-12-29T08:16:54.447Z,6.97
2022-12-29T08:19:24.217Z,7.13
2022-12-29T08:21:51.270Z,5.57
2022-12-29T08:24:18.297Z,6.77
2022-12-29T08:26:44.974Z,7.47
2022-12-29T08:29:11.899Z,10.23
2022-12-29T08:31:39.387Z,5.47
2022-12-29T08:34:06.781Z,10.47
2022-12-29T08:36:33.726Z,9.93
2022-12-29T08:39:00.518Z,10.10
2022-12-29T08:41:27.574Z,6.37
2022-12-29T08:43:54.461Z,10.13
2022-12-29T08:46:21.169Z,7.03
2022-12-29T08:48:48.205Z,7.07
2022-12-29T08:51:15.932Z,33.00
2022-12-29T08:53:44.409Z,5.10
2022-12-29T08:56:12.337Z,9.53
2022-12-29T08:58:47.057Z,6.90
2022-12-29T09:01:13.973Z,6.53
2022-12-29T09:06:28.132Z,11.87
2022-12-29T09:08:55.956Z,5.63
2022-12-29T09:11:24.515Z,12.40
2022-12-29T09:13:53.041Z,7.93
2022-12-29T09:16:24.296Z,8.27
2022-12-29T09:18:51.949Z,6.10
2022-12-29T09:21:22.193Z,10.17
2022-12-29T09:23:49.733Z,8.03
2022-12-29T09:26:16.779Z,6.33
2022-12-29T09:28:45.502Z,11.77
2022-12-29T09:31:14.248Z,11.43
2022-12-29T09:33:41.600Z,8.60
2022-12-29T09:36:09.762Z,9.77
2022-12-29T09:38:36.855Z,9.40
2022-12-29T09:41:14.750Z,11.10
2022-12-29T09:44:05.302Z,9.13
2022-12-29T09:46:58.563Z,11.07
2022-12-29T09:49:48.262Z,9.70
2022-12-29T09:52:18.224Z,7.43
2022-12-29T09:54:57.965Z,8.13
2022-12-29T09:57:31.874Z,7.03
2022-12-29T10:00:05.483Z,10.37
2022-12-29T10:02:51.267Z,10.53
2022-12-29T10:05:40.366Z,8.80
2022-12-29T10:08:22.434Z,7.77
2022-12-29T10:10:58.131Z,10.40
2022-12-29T10:14:13.912Z,9.30
2022-12-29T10:17:20.162Z,6.60
2022-12-29T10:20:05.659Z,7.53
2022-12-29T10:22:50.752Z,10.63
2022-12-29T10:25:20.507Z,12.07
2022-12-29T10:27:51.440Z,4.77
2022-12-29T10:30:19.266Z,15.33
2022-12-29T10:32:49.003Z,10.43
2022-12-29T10:35:27.492Z,13.50
2022-12-29T10:37:57.173Z,7.70
2022-12-29T10:40:32.144Z,13.20
2022-12-29T10:42:59.934Z,7.97
2022-12-29T10:45:31.515Z,10.10
2022-12-29T10:48:05.368Z,13.07
2022-12-29T10:50:32.569Z,8.40
2022-12-29T10:53:11.652Z,8.73
2022-12-29T10:55:39.416Z,6.63
2022-12-29T10:58:07.864Z,7.97
2022-12-29T11:00:35.046Z,8.57
2022-12-29T11:03:40.851Z,7.57
2022-12-29T11:06:13.839Z,11.57
2022-12-29T11:08:48.680Z,8.10
2022-12-29T11:11:27.242Z,11.27
2022-12-29T11:13:59.912Z,13.77
2022-12-29T11:16:35.467Z,13.13
2022-12-29T11:19:02.723Z,8.90
2022-12-29T11:21:43.161Z,7.70
2022-12-29T11:24:27.559Z,8.70
2022-12-29T11:26:58.556Z,12.10
2022-12-29T11:29:30.435Z,7.47
2022-12-29T11:32:00.357Z,11.00
2022-12-29T11:34:37.061Z,9.87
2022-12-29T11:37:12.475Z,10.43
2022-12-29T11:39:52.067Z,8.97
2022-12-29T11:42:21.211Z,12.60
2022-12-29T11:44:49.894Z,10.50
2022-12-29T11:47:47.146Z,10.80
2022-12-29T11:50:27.322Z,5.53
2022-12-29T11:53:18.654Z,11.27
2022-12-29T11:55:57.185Z,12.70
2022-12-29T11:58:33.578Z,11.03
2022-12-29T12:01:24.368Z,11.87
2022-12-29T12:04:02.694Z,9.50
2022-12-29T12:06:30.845Z,7.30
2022-12-29T12:09:02.144Z,10.00
2022-12-29T12:11:43.204Z,7.17
2022-12-29T12:14:15.613Z,13.20
2022-12-29T12:17:11.357Z,13.47
2022-12-29T12:19:47.321Z,7.63
2022-12-29T12:22:41.229Z,9.20
2022-12-29T12:25:14.894Z,7.37
2022-12-29T12:28:01.913Z,9.73
2022-12-29T12:30:32.889Z,7.33
2022-12-29T12:33:06.939Z,7.10
2022-12-29T12:35:52.829Z,5.63
2022-12-29T12:38:38.801Z,8.97
2022-12-29T12:41:35.302Z,8.10
2022-12-29T12:44:14.084Z,5.63
2022-12-29T12:46:54.333Z,9.93
2022-12-29T12:49:51.887Z,6.73
2022-12-29T12:52:33.566Z,11.30
2022-12-29T12:55:12.481Z,11.90
2022-12-29T12:57:49.812Z,10.37
2022-12-29T13:00:19.179Z,5.97
2022-12-29T13:03:14.317Z,9.37
2022-12-29T13:05:48.875Z,5.53
2022-12-29T13:08:34.058Z,6.40
2022-12-29T13:11:06.793Z,4.87
2022-12-29T13:14:15.042Z,7.47
2022-12-29T13:17:01.885Z,10.43
2022-12-29T13:19:32.900Z,4.53
2022-12-29T13:22:20.299Z,7.27
2022-12-29T13:25:15.109Z,7.50
2022-12-29T13:27:41.965Z,9.83
2022-12-29T13:30:16.647Z,8.67
2022-12-29T13:33:02.157Z,7.47
2022-12-29T13:35:32.142Z,8.63
2022-12-29T13:38:31.345Z,13.47
2022-12-29T13:41:03.560Z,12.97
2022-12-29T13:43:33.147Z,4.57
2022-12-29T13:46:06.348Z,9.63
2022-12-29T13:49:00.635Z,11.23
2022-12-29T13:51:28.754Z,10.73
2022-12-29T13:54:13.717Z,9.67
2022-12-29T13:56:43.961Z,9.87
2022-12-29T13:59:19.192Z,6.20
2022-12-29T14:01:55.880Z,11.33
2022-12-29T14:04:26.169Z,10.07
2022-12-29T14:07:08.267Z,11.37
2022-12-29T14:09:47.553Z,12.07
2022-12-29T14:12:39.698Z,9.47
2022-12-29T14:15:08.656Z,9.00
2022-12-29T14:17:44.217Z,13.37
2022-12-29T14:20:22.875Z,9.30
2022-12-29T14:22:57.457Z,7.50
2022-12-29T14:25:59.991Z,11.70
2022-12-29T14:28:30.758Z,12.40
2022-12-29T14:31:15.834Z,14.93
2022-12-29T14:34:11.720Z,9.97
2022-12-29T14:36:43.985Z,10.03
2022-12-29T14:39:40.494Z,10.90
2022-12-29T14:42:10.504Z,14.50
2022-12-29T14:44:51.555Z,10.37
2022-12-29T14:47:36.460Z,10.57
2022-12-29T14:50:12.265Z,17.73
2022-12-29T14:53:03.024Z,8.17
2022-12-29T14:55:42.984Z,9.10
2022-12-29T14:58:55.127Z,14.87
2022-12-29T15:01:38.880Z,13.23
2022-12-29T15:04:32.849Z,8.17
2022-12-29T15:07:01.065Z,8.03
2022-12-29T15:09:37.622Z,10.83
2022-12-29T15:12:25.154Z,9.83
2022-12-29T15:14:54.740Z,13.00
2022-12-29T15:17:34.002Z,8.40
2022-12-29T15:20:15.851Z,13.33
2022-12-29T15:22:53.051Z,19.67
2022-12-29T15:25:20.366Z,11.50
2022-12-29T15:27:55.435Z,7.53
2022-12-29T15:30:22.822Z,7.83
2022-12-29T15:32:51.138Z,13.30
2022-12-29T15:35:36.033Z,5.63
2022-12-29T15:38:15.365Z,5.70
2022-12-29T15:40:45.324Z,11.30
2022-12-29T15:43:24.801Z,6.37
2022-12-29T15:45:52.177Z,6.03
2022-12-29T15:48:22.227Z,8.50
2022-12-29T15:50:49.407Z,10.13
2022-12-29T15:53:33.484Z,5.37
2022-12-29T15:56:04.100Z,5.13
2022-12-29T15:58:51.570Z,5.10
2022-12-29T16:01:20.370Z,3.33
2022-12-29T16:03:47.533Z,4.17
2022-12-29T16:06:29.708Z,6.23
2022-12-29T16:09:01.174Z,5.57
2022-12-29T16:11:38.416Z,6.40
2022-12-29T16:14:17.655Z,4.33
2022-12-29T16:16:45.785Z,7.17
2022-12-29T16:19:15.884Z,6.60
2022-12-29T16:21:44.099Z,6.87
2022-12-29T16:24:18.126Z,12.00
2022-12-29T16:27:08.493Z,7.83
2022-12-29T16:29:35.963Z,7.50
2022-12-29T16:32:06.582Z,6.17
2022-12-29T16:34:42.991Z,11.57
2022-12-29T16:37:32.650Z,9.93
2022-12-29T16:40:24.388Z,7.70
2022-12-29T16:42:52.589Z,10.73
2022-12-29T16:45:19.662Z,15.00
2022-12-29T16:47:50.411Z,11.80
2022-12-29T16:50:28.270Z,13.67
2022-12-29T16:52:56.004Z,11.40
2022-12-29T16:55:24.069Z,10.07
2022-12-29T16:57:54.730Z,13.77
2022-12-29T17:00:24.251Z,15.77
2022-12-29T17:02:53.653Z,12.13
2022-12-29T17:05:20.879Z,12.07
2022-12-29T17:07:48.950Z,16.00
2022-12-29T17:10:19.555Z,16.47
2022-12-29T17:12:48.807Z,10.17
2022-12-29T17:15:26.339Z,20.37
2022-12-29T17:17:56.444Z,12.73
2022-12-29T17:20:31.651Z,15.37
2022-12-29T17:22:59.568Z,10.10
2022-12-29T17:25:35.603Z,14.93
2022-12-29T17:28:32.485Z,24.13
2022-12-29T17:31:06.950Z,13.73
2022-12-29T17:33:38.837Z,16.43
2022-12-29T17:36:05.955Z,9.40
2022-12-29T17:38:35.639Z,8.33
2022-12-29T17:41:02.769Z,16.80
2022-12-29T17:43:36.336Z,9.50
2022-12-29T17:46:06.411Z,12.50
2022-12-29T17:48:33.463Z,16.47
2022-12-29T17:51:00.206Z,9.20
2022-12-29T17:53:29.397Z,12.57
2022-12-29T17:55:56.587Z,12.77
2022-12-29T17:58:25.836Z,9.57
2022-12-29T18:00:54.942Z,13.43
2022-12-29T18:03:31.123Z,10.50
2022-12-29T18:05:58.542Z,15.03
2022-12-29T18:08:25.697Z,9.30
2022-12-29T18:10:54.043Z,12.77
2022-12-29T18:13:27.144Z,10.57
2022-12-29T18:15:59.086Z,11.30
2022-12-29T18:18:27.473Z,10.30
2022-12-29T18:20:57.327Z,8.47
2022-12-29T18:23:26.508Z,14.40
2022-12-29T18:25:59.135Z,11.33
2022-12-29T18:28:26.451Z,10.70
2022-12-29T18:30:53.770Z,10.03
2022-12-29T18:33:26.007Z,11.43
2022-12-29T18:36:03.663Z,14.20
2022-12-29T18:38:36.125Z,13.77
2022-12-29T18:41:04.175Z,11.03
2022-12-29T18:43:36.537Z,11.87
2022-12-29T18:46:07.349Z,7.93
2022-12-29T18:48:35.402Z,11.37
2022-12-29T18:51:14.830Z,7.23
2022-12-29T18:53:42.320Z,8.17
2022-12-29T18:56:13.321Z,10.03
2022-12-29T18:58:46.796Z,12.40
2022-12-29T19:01:22.101Z,10.20
2022-12-29T19:03:49.888Z,8.27
2022-12-29T19:06:21.492Z,11.27
2022-12-29T19:08:50.180Z,10.27
2022-12-29T19:11:19.925Z,12.80
2022-12-29T19:13:47.420Z,16.20
2022-12-29T19:16:20.117Z,15.07
2022-12-29T19:18:58.115Z,9.73
2022-12-29T19:21:31.116Z,5.87
2022-12-29T19:23:58.444Z,8.53
2022-12-29T19:26:31.622Z,12.93
2022-12-29T19:28:59.373Z,14.93
2022-12-29T19:31:28.263Z,11.03
2022-12-29T19:33:56.039Z,13.57
2022-12-29T19:36:23.066Z,9.97
2022-12-29T19:38:50.265Z,10.97
2022-12-29T19:41:17.241Z,7.10
2022-12-29T19:43:44.277Z,10.20
2022-12-29T19:46:14.298Z,9.03
2022-12-29T19:48:41.288Z,9.87
2022-12-29T19:51:10.713Z,12.93
2022-12-29T19:53:38.213Z,11.80
2022-12-29T19:56:07.417Z,13.73
2022-12-29T19:58:36.286Z,16.43
2022-12-29T20:01:15.160Z,9.87
2022-12-29T20:03:42.838Z,9.80
2022-12-29T20:06:11.246Z,13.07
2022-12-29T20:08:39.296Z,7.67
2022-12-29T20:11:09.177Z,14.07
2022-12-29T20:13:36.869Z,14.27
2022-12-29T20:16:07.900Z,12.27
2022-12-29T20:18:36.303Z,17.20
2022-12-29T20:21:09.281Z,20.27
2022-12-29T20:23:38.653Z,13.87
2022-12-29T20:26:06.317Z,13.90
2022-12-29T20:28:33.328Z,13.80
2022-12-29T20:31:04.128Z,19.57
2022-12-29T20:33:37.888Z,18.33
2022-12-29T20:36:23.722Z,10.53
2022-12-29T20:38:53.097Z,15.87
2022-12-29T20:41:21.379Z,9.27
2022-12-29T20:43:49.350Z,12.57
2022-12-29T20:46:20.822Z,17.03
2022-12-29T20:48:49.862Z,11.07
2022-12-29T20:51:17.314Z,10.60
2022-12-29T20:53:44.689Z,16.53
2022-12-29T20:56:15.424Z,15.37
2022-12-29T20:59:17.072Z,14.10
2022-12-29T21:01:29.385Z,18.17
2022-12-29T21:03:56.679Z,20.77
2022-12-29T21:06:23.669Z,14.57
2022-12-29T21:08:51.128Z,10.67
2022-12-29T21:11:19.214Z,13.20
2022-12-29T21:13:46.161Z,10.53
2022-12-29T21:16:21.441Z,15.90
2022-12-29T21:18:51.690Z,10.37
2022-12-29T21:21:21.829Z,11.37
2022-12-29T21:23:50.670Z,11.30
2022-12-29T21:26:22.565Z,19.93
2022-12-29T21:28:50.304Z,12.70
2022-12-29T21:31:26.503Z,10.77
2022-12-29T21:33:54.352Z,13.73
2022-12-29T21:36:21.567Z,15.33
2022-12-29T21:38:48.657Z,11.40
2022-12-29T21:41:17.518Z,16.23
2022-12-29T21:44:07.938Z,10.83
2022-12-29T21:46:37.042Z,18.60
2022-12-29T21:49:05.567Z,19.30
2022-12-29T21:51:50.848Z,13.40
2022-12-29T21:54:37.774Z,12.30
2022-12-29T21:57:05.235Z,12.43
2022-12-29T21:59:51.213Z,17.43
2022-12-29T22:02:44.277Z,13.10
2022-12-29T22:05:34.500Z,14.80
2022-12-29T22:08:21.260Z,11.87
2022-12-29T22:11:07.688Z,16.67
2022-12-29T22:13:36.608Z,12.53
2022-12-29T22:16:05.100Z,12.17
2022-12-29T22:18:32.074Z,10.63
2022-12-29T22:20:59.248Z,18.00
2022-12-29T22:23:27.041Z,10.57
2022-12-29T22:25:54.700Z,13.00
2022-12-29T22:28:21.773Z,13.63
2022-12-29T22:30:48.611Z,6.93
2022-12-29T22:33:15.904Z,9.63
2022-12-29T22:35:42.957Z,19.17
2022-12-29T22:38:09.901Z,15.27
2022-12-29T22:40:36.779Z,11.00
2022-12-29T22:43:09.481Z,11.37
2022-12-29T22:45:40.777Z,8.80
2022-12-29T22:48:08.765Z,17.83
2022-12-29T22:50:39.101Z,9.53
2022-12-29T22:53:07.029Z,15.50
2022-12-29T22:55:34.929Z,27.80
2022-12-29T22:58:02.920Z,12.90
2022-12-29T23:00:30.043Z,10.67
2022-12-29T23:02:57.252Z,8.23
2022-12-29T23:05:24.342Z,8.93
2022-12-29T23:07:51.356Z,20.53
2022-12-29T23:10:18.453Z,14.90
2022-12-29T23:12:45.831Z,15.10
2022-12-29T23:15:12.720Z,13.07
2022-12-29T23:17:39.978Z,18.00
2022-12-29T23:20:10.128Z,17.53
2022-12-29T23:22:37.115Z,12.87
2022-12-29T23:25:04.299Z,12.13
2022-12-29T23:27:31.335Z,8.67
2022-12-29T23:29:58.575Z,23.90
2022-12-29T23:32:25.536Z,14.73
2022-12-29T23:34:52.506Z,12.80
2022-12-29T23:37:22.165Z,15.03
2022-12-29T23:39:49.397Z,10.93
2022-12-29T23:42:16.519Z,11.03
2022-12-29T23:44:43.945Z,10.90
2022-12-29T23:47:11.354Z,11.60
2022-12-29T23:49:38.393Z,11.23
2022-12-29T23:52:05.782Z,13.87
2022-12-29T23:54:33.178Z,13.60
2022-12-29T23:57:06.521Z,12.27
2022-12-29T23:59:34.195Z,4.63
